createdAt,value
2017-02-04T00:02:24.005Z,63.44
2017-02-04T00:04:44.798Z,63.53
2017-02-04T00:07:12.145Z,63.56
2017-02-04T00:09:40.723Z,63.61
2017-02-04T00:12:09.020Z,63.6
2017-02-04T00:14:38.261Z,63.61
2017-02-04T00:17:06.392Z,63.6
2017-02-04T00:19:37.378Z,63.61
2017-02-04T00:22:07.934Z,63.62
2017-02-04T00:24:35.522Z,63.66
2017-02-04T00:27:04.336Z,63.66
2017-02-04T00:29:31.343Z,63.67
2017-02-04T00:31:56.329Z,63.64
2017-02-04T00:34:18.250Z,63.56
2017-02-04T00:36:44.547Z,63.46
2017-02-04T00:39:12.097Z,63.39
2017-02-04T00:41:41.860Z,63.32
2017-02-04T00:44:12.419Z,63.3
2017-02-04T00:46:32.206Z,63.31
2017-02-04T00:48:49.750Z,63.34
2017-02-04T00:51:08.872Z,63.4
2017-02-04T00:53:21.299Z,63.43
2017-02-04T00:55:39.033Z,63.45
2017-02-04T00:57:53.893Z,63.49
2017-02-04T01:00:06.496Z,63.51
2017-02-04T01:02:20.567Z,63.55
2017-02-04T01:04:36.044Z,63.57
2017-02-04T01:06:50.905Z,63.6
2017-02-04T01:09:06.088Z,63.59
2017-02-04T01:11:21.431Z,63.58
2017-02-04T01:13:39.016Z,63.55
2017-02-04T01:15:55.573Z,63.54
2017-02-04T01:18:08.815Z,63.55
2017-02-04T01:20:23.418Z,63.56
2017-02-04T01:22:38.100Z,63.57
2017-02-04T01:24:51.772Z,63.56
2017-02-04T01:27:05.214Z,63.53
2017-02-04T01:29:20.223Z,63.53
2017-02-04T01:31:34.574Z,63.52
2017-02-04T01:33:47.414Z,63.51
2017-02-04T01:35:57.032Z,63.5
2017-02-04T01:38:12.340Z,63.5
2017-02-04T01:40:25.733Z,63.54
2017-02-04T01:42:38.799Z,63.56
2017-02-04T01:44:54.589Z,63.59
2017-02-04T01:47:08.659Z,63.63
2017-02-04T01:49:23.458Z,63.63
2017-02-04T01:51:37.518Z,63.67
2017-02-04T01:53:50.464Z,63.7
2017-02-04T01:56:04.040Z,63.71
2017-02-04T01:58:18.272Z,63.75
2017-02-04T02:00:30.485Z,63.77
2017-02-04T02:02:42.803Z,63.8
2017-02-04T02:04:55.120Z,63.78
2017-02-04T02:07:07.461Z,63.78
2017-02-04T02:09:19.907Z,63.77
2017-02-04T02:11:32.532Z,63.77
2017-02-04T02:13:45.984Z,63.81
2017-02-04T02:15:59.541Z,63.8
2017-02-04T02:18:11.701Z,63.83
2017-02-04T02:20:24.963Z,63.83
2017-02-04T02:22:37.710Z,63.85
2017-02-04T02:24:50.213Z,63.86
2017-02-04T02:27:02.566Z,63.88
2017-02-04T02:29:14.912Z,63.85
2017-02-04T02:31:27.366Z,63.83
2017-02-04T02:33:39.839Z,63.82
2017-02-04T02:35:52.629Z,63.8
2017-02-04T02:38:03.090Z,63.75
2017-02-04T02:40:15.207Z,63.75
2017-02-04T02:42:27.440Z,63.75
2017-02-04T02:44:39.828Z,63.77
2017-02-04T02:46:52.068Z,63.76
2017-02-04T02:49:04.382Z,63.74
2017-02-04T02:51:16.686Z,63.71
2017-02-04T02:53:29.041Z,63.7
2017-02-04T02:55:41.214Z,63.71
2017-02-04T02:57:53.551Z,63.71
2017-02-04T03:00:06.180Z,63.7
2017-02-04T03:02:18.340Z,63.7
2017-02-04T03:04:30.606Z,63.69
2017-02-04T03:06:42.803Z,63.69
2017-02-04T03:08:54.968Z,63.69
2017-02-04T03:10:57.340Z,63.71
2017-02-04T03:13:09.557Z,63.73
2017-02-04T03:15:21.870Z,63.76
2017-02-04T03:17:34.332Z,63.8
2017-02-04T03:19:46.891Z,63.8
2017-02-04T03:21:59.248Z,63.81
2017-02-04T03:24:11.360Z,63.81
2017-02-04T03:26:23.710Z,63.83
2017-02-04T03:28:35.859Z,63.88
2017-02-04T03:30:48.017Z,63.88
2017-02-04T03:33:00.540Z,63.91
2017-02-04T03:35:13.304Z,63.93
2017-02-04T03:37:26.005Z,63.94
2017-02-04T03:39:38.200Z,63.94
2017-02-04T03:41:50.492Z,63.93
2017-02-04T03:44:02.734Z,63.95
2017-02-04T03:46:09.977Z,63.96
2017-02-04T03:48:22.351Z,64.01
2017-02-04T03:50:34.632Z,64.06
2017-02-04T03:52:47.156Z,64.12
2017-02-04T03:54:59.343Z,64.18
2017-02-04T03:57:06.568Z,64.23
2017-02-04T03:59:13.693Z,64.26
2017-02-04T04:01:25.829Z,64.32
2017-02-04T04:03:37.999Z,64.37
2017-02-04T04:05:50.133Z,64.4
2017-02-04T04:08:00.978Z,64.5
2017-02-04T04:10:13.158Z,64.59
2017-02-04T04:12:25.528Z,64.7
2017-02-04T04:14:37.886Z,64.78
2017-02-04T04:16:50.168Z,64.75
2017-02-04T04:19:02.456Z,64.74
2017-02-04T04:21:14.806Z,64.82
2017-02-04T04:23:26.990Z,64.84
2017-02-04T04:25:39.272Z,64.83
2017-02-04T04:27:51.622Z,64.87
2017-02-04T04:30:03.843Z,64.94
2017-02-04T04:32:16.107Z,65.03
2017-02-04T04:34:28.355Z,65.07
2017-02-04T04:36:40.517Z,65.08
2017-02-04T04:38:52.816Z,65.11
2017-02-04T04:41:05.274Z,65.11
2017-02-04T04:43:18.033Z,65.12
2017-02-04T04:45:30.488Z,65.17
2017-02-04T04:47:42.985Z,65.18
2017-02-04T04:49:55.338Z,65.12
2017-02-04T04:52:08.107Z,65.15
2017-02-04T04:54:20.530Z,65.19
2017-02-04T04:58:43.544Z,65.21
2017-02-04T05:00:55.790Z,65.18
2017-02-04T05:03:08.018Z,65.16
2017-02-04T05:05:20.566Z,65.23
2017-02-04T05:07:32.715Z,65.28
2017-02-04T05:09:44.980Z,65.28
2017-02-04T05:11:57.242Z,65.31
2017-02-04T05:14:09.535Z,65.39
2017-02-04T05:16:21.805Z,65.48
2017-02-04T05:18:34.007Z,65.5
2017-02-04T05:20:46.463Z,65.46
2017-02-04T05:22:57.231Z,65.42
2017-02-04T05:25:09.549Z,65.32
2017-02-04T05:27:22.250Z,65.22
2017-02-04T05:29:34.470Z,65.25
2017-02-04T05:31:46.675Z,65.33
2017-02-04T05:33:58.976Z,65.42
2017-02-04T05:36:11.355Z,65.46
2017-02-04T05:38:23.614Z,65.47
2017-02-04T05:40:35.999Z,65.48
2017-02-04T05:42:48.164Z,65.47
2017-02-04T05:45:00.355Z,65.47
2017-02-04T05:47:12.520Z,65.5
2017-02-04T05:49:24.874Z,65.47
2017-02-04T05:51:37.223Z,65.39
2017-02-04T05:53:49.580Z,65.35
2017-02-04T05:56:01.939Z,65.3
2017-02-04T05:58:14.346Z,65.27
2017-02-04T06:00:26.670Z,65.23
2017-02-04T06:02:38.834Z,65.19
2017-02-04T06:04:51.011Z,65.2
2017-02-04T06:07:03.254Z,65.25
2017-02-04T06:09:10.610Z,65.28
2017-02-04T06:11:22.832Z,65.33
2017-02-04T06:13:35.116Z,65.29
2017-02-04T06:15:47.305Z,65.24
2017-02-04T06:20:05.143Z,65.08
2017-02-04T06:22:12.600Z,65.01
2017-02-04T06:24:24.759Z,64.94
2017-02-04T06:26:37.029Z,64.87
2017-02-04T06:28:49.245Z,64.91
2017-02-04T06:31:01.612Z,64.97
2017-02-04T06:33:14.174Z,65.04
2017-02-04T06:35:21.604Z,65.11
2017-02-04T06:37:29.036Z,65.12
2017-02-04T06:39:41.304Z,65.1
2017-02-04T06:41:53.618Z,64.98
2017-02-04T06:44:05.836Z,64.88
2017-02-04T06:46:18.193Z,64.64
2017-02-04T06:48:30.513Z,64.35
2017-02-04T06:50:42.844Z,64.17
2017-02-04T06:52:55.202Z,64.04
2017-02-04T06:55:07.469Z,63.88
2017-02-04T06:57:19.800Z,63.82
2017-02-04T06:59:32.120Z,63.77
2017-02-04T07:01:39.505Z,63.76
2017-02-04T07:03:51.684Z,63.77
2017-02-04T07:06:03.913Z,63.81
2017-02-04T07:08:16.194Z,63.87
2017-02-04T07:10:28.458Z,63.92
2017-02-04T07:12:40.762Z,63.96
2017-02-04T07:14:52.927Z,63.98
2017-02-04T07:17:05.295Z,63.97
2017-02-04T07:19:17.637Z,63.93
2017-02-04T07:21:30.016Z,63.86
2017-02-04T07:23:42.140Z,63.78
2017-02-04T07:25:54.351Z,63.69
2017-02-04T07:28:06.541Z,63.62
2017-02-04T07:30:18.765Z,63.56
2017-02-04T07:32:31.145Z,63.5
2017-02-04T07:34:43.472Z,63.42
2017-02-04T07:36:55.792Z,63.35
2017-02-04T07:39:08.296Z,63.24
2017-02-04T07:41:20.498Z,63.11
2017-02-04T07:43:32.748Z,62.9
2017-02-04T07:45:45.106Z,62.73
2017-02-04T07:47:57.557Z,62.64
2017-02-04T07:50:09.860Z,62.45
2017-02-04T07:52:22.434Z,62.29
2017-02-04T07:54:34.838Z,62.25
2017-02-04T07:56:47.039Z,62.14
2017-02-04T07:58:59.181Z,62.1
2017-02-04T08:01:11.358Z,62.05
2017-02-04T08:03:23.738Z,62.01
2017-02-04T08:05:31.137Z,61.96
2017-02-04T08:07:43.338Z,61.97
2017-02-04T08:09:55.606Z,61.95
2017-02-04T08:12:07.824Z,61.79
2017-02-04T08:14:20.075Z,61.67
2017-02-04T08:16:32.311Z,61.65
2017-02-04T08:18:39.743Z,61.68
2017-02-04T08:20:50.244Z,61.79
2017-02-04T08:23:02.448Z,61.92
2017-02-04T08:25:14.664Z,61.93
2017-02-04T08:27:26.914Z,61.88
2017-02-04T08:29:39.143Z,61.87
2017-02-04T08:31:51.361Z,61.7
2017-02-04T08:34:03.645Z,61.71
2017-02-04T08:36:15.872Z,61.78
2017-02-04T08:38:28.187Z,61.62
2017-02-04T08:40:40.452Z,61.19
2017-02-04T08:42:50.974Z,60.74
2017-02-04T08:45:03.372Z,60.47
2017-02-04T08:47:15.770Z,60.28
2017-02-04T08:49:27.988Z,60.22
2017-02-04T08:51:40.252Z,60.16
2017-02-04T08:53:52.449Z,60.15
2017-02-04T08:56:05.292Z,60.29
2017-02-04T08:58:12.702Z,60.38
2017-02-04T09:00:20.012Z,60.19
2017-02-04T09:02:32.676Z,59.99
2017-02-04T09:04:44.977Z,59.93
2017-02-04T09:06:57.210Z,59.9
2017-02-04T09:09:09.570Z,59.79
2017-02-04T09:11:21.814Z,59.51
2017-02-04T09:13:29.004Z,59.06
2017-02-04T09:15:41.507Z,55.76
2017-02-04T09:17:53.748Z,55.45
2017-02-04T09:20:06.201Z,56.98
2017-02-04T09:22:18.536Z,57.07
2017-02-04T09:24:30.749Z,56.78
2017-02-04T09:26:42.993Z,56.77
2017-02-04T09:28:55.322Z,53.92
2017-02-04T09:31:07.779Z,49.98
2017-02-04T09:33:20.157Z,46.96
2017-02-04T09:35:32.400Z,47.14
2017-02-04T09:37:44.666Z,45.83
2017-02-04T09:39:56.956Z,44.72
2017-02-04T09:42:09.260Z,44.54
2017-02-04T09:44:21.443Z,43.79
2017-02-04T09:46:33.652Z,43.63
2017-02-04T09:48:46.098Z,42.27
2017-02-04T09:50:58.410Z,42.07
2017-02-04T09:53:10.817Z,42.56
2017-02-04T09:55:23.143Z,43.56
2017-02-04T09:57:35.360Z,44.44
2017-02-04T09:59:47.720Z,42.71
2017-02-04T10:02:00.164Z,41.38
2017-02-04T10:04:12.338Z,40.3
2017-02-04T10:06:24.755Z,39.28
2017-02-04T10:08:36.994Z,39.07
2017-02-04T10:10:49.506Z,39.07
2017-02-04T10:13:02.824Z,38.42
2017-02-04T10:15:15.122Z,38.19
2017-02-04T10:17:27.366Z,37.91
2017-02-04T10:19:37.864Z,37.58
2017-02-04T10:21:50.174Z,38.12
2017-02-04T10:24:02.469Z,38.43
2017-02-04T10:26:09.769Z,37.55
2017-02-04T10:28:22.181Z,37.07
2017-02-04T10:30:34.347Z,36.61
2017-02-04T10:32:46.904Z,36.36
2017-02-04T10:34:59.219Z,37.49
2017-02-04T10:37:11.682Z,38.92
2017-02-04T10:39:24.366Z,40.02
2017-02-04T10:41:36.726Z,41.43
2017-02-04T10:43:49.085Z,40.9
2017-02-04T10:46:01.534Z,40.54
2017-02-04T10:48:13.920Z,41.04
2017-02-04T10:50:26.197Z,42.1
2017-02-04T10:52:38.527Z,43.09
2017-02-04T10:54:50.751Z,44.7
2017-02-04T10:57:03.057Z,46.11
2017-02-04T10:59:15.405Z,47.29
2017-02-04T11:01:27.658Z,48.42
2017-02-04T11:03:39.975Z,49.38
2017-02-04T11:05:52.374Z,50.02
2017-02-04T11:08:04.865Z,50.64
2017-02-04T11:10:12.313Z,51.27
2017-02-04T11:12:24.682Z,51.79
2017-02-04T11:14:37.011Z,52.11
2017-02-04T11:16:49.330Z,52.06
2017-02-04T11:18:56.667Z,51.81
2017-02-04T11:21:08.997Z,50.97
2017-02-04T11:23:21.196Z,50.5
2017-02-04T11:25:33.425Z,50.02
2017-02-04T11:27:45.751Z,49.21
2017-02-04T11:29:58.022Z,48.56
2017-02-04T11:32:10.341Z,48.11
2017-02-04T11:34:17.823Z,46.71
2017-02-04T11:36:30.212Z,45.61
2017-02-04T11:38:42.451Z,44.99
2017-02-04T11:40:55.058Z,44.56
2017-02-04T11:43:08.273Z,45.45
2017-02-04T11:45:21.062Z,45.4
2017-02-04T11:47:34.405Z,42.48
2017-02-04T11:49:47.185Z,42.7
2017-02-04T11:52:00.815Z,41.9
2017-02-04T11:54:16.823Z,41.57
2017-02-04T11:56:30.783Z,41.81
2017-02-04T11:58:43.183Z,42.02
2017-02-04T12:00:55.417Z,42.46
2017-02-04T12:03:07.606Z,44.08
2017-02-04T12:05:20.012Z,45.18
2017-02-04T12:07:32.598Z,45.8
2017-02-04T12:09:44.763Z,46.7
2017-02-04T12:11:57.090Z,45.98
2017-02-04T12:14:09.294Z,44.51
2017-02-04T12:16:22.121Z,44.54
2017-02-04T12:18:34.509Z,46.66
2017-02-04T12:20:46.818Z,47.49
2017-02-04T12:22:59.160Z,48.22
2017-02-04T12:25:11.556Z,49.05
2017-02-04T12:27:23.911Z,48.49
2017-02-04T12:29:36.467Z,47.67
2017-02-04T12:31:43.739Z,46.22
2017-02-04T12:33:56.131Z,45.28
2017-02-04T12:36:08.389Z,44.46
2017-02-04T12:38:20.749Z,46.06
2017-02-04T12:40:33.196Z,48.07
2017-02-04T12:42:45.564Z,49.07
2017-02-04T12:44:57.942Z,49.58
2017-02-04T12:47:10.266Z,50
2017-02-04T12:49:22.485Z,50.8
2017-02-04T12:51:35.036Z,51.48
2017-02-04T12:53:42.460Z,51.73
2017-02-04T12:55:54.558Z,51.7
2017-02-04T12:58:07.158Z,51.69
2017-02-04T13:00:19.420Z,51.8
2017-02-04T13:02:31.881Z,51.88
2017-02-04T13:04:48.364Z,52.06
2017-02-04T13:07:23.138Z,52.57
2017-02-04T13:09:51.548Z,53.33
2017-02-04T13:12:24.888Z,53.95
2017-02-04T13:14:51.007Z,54.41
2017-02-04T13:17:25.051Z,54.7
2017-02-04T13:19:59.885Z,55.2
2017-02-04T13:22:28.131Z,55.64
2017-02-04T13:24:55.661Z,56.04
2017-02-04T13:27:22.346Z,56.41
2017-02-04T13:29:44.511Z,56.73
2017-02-04T13:32:03.208Z,56.96
2017-02-04T13:34:24.227Z,57.19
2017-02-04T13:36:40.505Z,57.52
2017-02-04T13:39:00.277Z,57.78
2017-02-04T13:41:34.471Z,57.98
2017-02-04T13:44:06.888Z,58.13
2017-02-04T13:46:37.998Z,58.3
2017-02-04T13:49:15.921Z,58.49
2017-02-04T13:51:50.937Z,58.6
2017-02-04T13:54:12.640Z,58.72
2017-02-04T13:56:40.003Z,58.88
2017-02-04T13:59:11.106Z,59.06
2017-02-04T14:01:39.285Z,59.21
2017-02-04T14:04:08.741Z,59.25
2017-02-04T14:06:28.473Z,59.31
2017-02-04T14:08:55.769Z,59.3
2017-02-04T14:11:25.098Z,59.07
2017-02-04T14:13:49.548Z,59.04
2017-02-04T14:16:06.766Z,59.15
2017-02-04T14:18:32.388Z,59.33
2017-02-04T14:20:53.166Z,59.41
2017-02-04T14:23:20.858Z,59.47
2017-02-04T14:25:51.589Z,59.59
2017-02-04T14:28:23.618Z,59.9
2017-02-04T14:30:53.968Z,60.32
2017-02-04T14:33:22.337Z,60.48
2017-02-04T14:35:51.317Z,60.39
2017-02-04T14:38:21.020Z,60.33
2017-02-04T14:40:52.763Z,60.43
2017-02-04T14:43:21.912Z,60.57
2017-02-04T14:45:51.413Z,60.71
2017-02-04T14:48:23.913Z,60.61
2017-02-04T14:50:52.841Z,60.55
2017-02-04T14:53:21.141Z,60.59
2017-02-04T14:55:45.870Z,60.65
2017-02-04T14:58:11.108Z,60.77
2017-02-04T15:00:41.580Z,60.97
2017-02-04T15:03:10.628Z,61.16
2017-02-04T15:05:34.713Z,61.31
2017-02-04T15:07:48.628Z,61.42
2017-02-04T15:10:01.328Z,61.53
2017-02-04T15:12:14.546Z,61.59
2017-02-04T15:14:26.853Z,61.62
2017-02-04T15:16:45.786Z,61.53
2017-02-04T15:19:12.828Z,61.56
2017-02-04T15:21:25.163Z,61.61
2017-02-04T15:23:37.565Z,61.62
2017-02-04T15:25:57.506Z,61.58
2017-02-04T15:28:17.307Z,61.61
2017-02-04T15:30:36.307Z,61.62
2017-02-04T15:33:00.451Z,61.64
2017-02-04T15:35:23.296Z,61.76
2017-02-04T15:37:51.728Z,61.86
2017-02-04T15:40:14.209Z,61.89
2017-02-04T15:42:36.443Z,61.92
2017-02-04T15:44:49.052Z,61.95
2017-02-04T15:47:07.950Z,61.9
2017-02-04T15:49:34.135Z,61.79
2017-02-04T15:52:03.640Z,61.85
2017-02-04T15:54:33.266Z,61.92
2017-02-04T15:57:01.540Z,61.84
2017-02-04T15:59:32.654Z,61.85
2017-02-04T16:02:03.077Z,61.96
2017-02-04T16:04:31.369Z,62.03
2017-02-04T16:06:59.881Z,62.04
2017-02-04T16:09:29.508Z,62.04
2017-02-04T16:11:58.245Z,62.1
2017-02-04T16:14:27.864Z,62.09
2017-02-04T16:16:47.944Z,62.08
2017-02-04T16:19:00.477Z,62.12
2017-02-04T16:21:13.097Z,62.14
2017-02-04T16:23:25.608Z,62.19
2017-02-04T16:25:39.178Z,62.24
2017-02-04T16:28:09.150Z,62.32
2017-02-04T16:30:32.251Z,62.4
2017-02-04T16:32:44.572Z,62.42
2017-02-04T16:35:06.016Z,62.43
2017-02-04T16:37:35.499Z,62.37
2017-02-04T16:39:58.453Z,62.35
2017-02-04T16:42:14.993Z,62.4
2017-02-04T16:44:37.164Z,62.4
2017-02-04T16:47:02.725Z,62.43
2017-02-04T16:49:31.015Z,62.62
2017-02-04T16:52:00.856Z,62.93
2017-02-04T16:54:28.941Z,63.2
2017-02-04T16:56:58.044Z,63.25
2017-02-04T16:59:26.149Z,63.27
2017-02-04T17:01:54.069Z,63.27
2017-02-04T17:04:22.860Z,63.31
2017-02-04T17:06:47.991Z,63.33
2017-02-04T17:09:07.924Z,63.25
2017-02-04T17:11:34.333Z,63.16
2017-02-04T17:14:00.198Z,63.1
2017-02-04T17:16:24.126Z,63.05
2017-02-04T17:18:42.359Z,62.97
2017-02-04T17:21:07.005Z,62.94
2017-02-04T17:23:34.330Z,62.9
2017-02-04T17:25:59.699Z,62.83
2017-02-04T17:28:27.365Z,62.76
2017-02-04T17:30:56.326Z,62.74
2017-02-04T17:33:26.335Z,62.71
2017-02-04T17:35:58.268Z,62.67
2017-02-04T17:38:17.723Z,62.65
2017-02-04T17:40:25.007Z,62.64
2017-02-04T17:42:37.454Z,62.55
2017-02-04T17:44:49.788Z,62.48
2017-02-04T17:47:02.115Z,62.46
2017-02-04T17:49:14.852Z,62.38
2017-02-04T17:51:27.370Z,62.29
2017-02-04T17:53:39.672Z,62.11
2017-02-04T17:55:51.910Z,62.02
2017-02-04T17:58:04.756Z,62.05
2017-02-04T18:00:12.295Z,62.15
2017-02-04T18:02:24.722Z,62.1
2017-02-04T18:04:37.121Z,62.07
2017-02-04T18:06:49.604Z,62.09
2017-02-04T18:09:02.057Z,62.07
2017-02-04T18:11:18.385Z,62.12
2017-02-04T18:13:33.445Z,62.17
2017-02-04T18:15:51.191Z,62.18
2017-02-04T18:18:06.973Z,62.17
2017-02-04T18:20:22.212Z,62.16
2017-02-04T18:22:38.585Z,62.21
2017-02-04T18:24:54.347Z,62.28
2017-02-04T18:27:09.417Z,62.36
2017-02-04T18:29:25.001Z,62.43
2017-02-04T18:31:41.223Z,62.51
2017-02-04T18:33:56.247Z,62.57
2017-02-04T18:36:11.723Z,62.66
2017-02-04T18:38:27.739Z,62.73
2017-02-04T18:40:41.204Z,62.79
2017-02-04T18:42:54.498Z,62.82
2017-02-04T18:45:09.766Z,62.8
2017-02-04T18:47:25.498Z,62.85
2017-02-04T18:49:40.717Z,62.86
2017-02-04T18:51:56.182Z,62.86
2017-02-04T18:54:11.189Z,62.86
2017-02-04T18:56:25.844Z,62.83
2017-02-04T18:58:40.538Z,62.79
2017-02-04T19:00:55.526Z,62.78
2017-02-04T19:03:11.409Z,62.73
2017-02-04T19:05:27.336Z,62.72
2017-02-04T19:07:40.445Z,62.73
2017-02-04T19:09:52.809Z,62.78
2017-02-04T19:12:14.301Z,62.87
2017-02-04T19:14:39.870Z,62.82
2017-02-04T19:17:02.408Z,62.83
2017-02-04T19:19:34.238Z,62.85
2017-02-04T19:21:59.631Z,62.73
2017-02-04T19:24:26.577Z,62.62
2017-02-04T19:26:49.037Z,62.57
2017-02-04T19:29:17.530Z,62.55
2017-02-04T19:31:39.153Z,62.46
2017-02-04T19:34:06.436Z,62.4
2017-02-04T19:36:31.848Z,62.39
2017-02-04T19:38:53.388Z,62.26
2017-02-04T19:41:19.262Z,62.14
2017-02-04T19:43:48.117Z,62.08
2017-02-04T19:46:08.811Z,62.02
2017-02-04T19:48:34.717Z,61.97
2017-02-04T19:51:01.018Z,61.93
2017-02-04T19:53:21.514Z,61.88
2017-02-04T19:55:42.432Z,61.81
2017-02-04T19:58:09.973Z,61.77
2017-02-04T20:00:36.621Z,61.75
2017-02-04T20:02:59.219Z,61.74
2017-02-04T20:05:23.610Z,61.72
2017-02-04T20:07:53.751Z,61.73
2017-02-04T20:10:23.144Z,61.69
2017-02-04T20:12:43.711Z,61.67
2017-02-04T20:15:08.901Z,61.64
2017-02-04T20:17:26.777Z,61.63
2017-02-04T20:19:48.002Z,61.65
2017-02-04T20:22:02.742Z,61.68
2017-02-04T20:24:14.920Z,61.7
2017-02-04T20:26:27.367Z,61.73
2017-02-04T20:28:40.052Z,61.75
2017-02-04T20:30:52.424Z,61.84
2017-02-04T20:33:04.680Z,61.89
2017-02-04T20:35:17.178Z,61.94
2017-02-04T20:37:29.561Z,61.98
2017-02-04T20:39:42.031Z,62.07
2017-02-04T20:41:54.513Z,62.11
2017-02-04T20:44:07.799Z,62.1
2017-02-04T20:46:20.306Z,62.12
2017-02-04T20:48:33.741Z,62.15
2017-02-04T20:50:47.595Z,62.19
2017-02-04T20:53:00.088Z,62.17
2017-02-04T20:55:12.955Z,62.23
2017-02-04T20:57:29.502Z,62.23
2017-02-04T20:59:38.496Z,62.22
2017-02-04T21:01:52.597Z,62.23
2017-02-04T21:04:06.930Z,62.26
2017-02-04T21:06:21.207Z,62.32
2017-02-04T21:08:36.065Z,62.3
2017-02-04T21:10:48.519Z,62.32
2017-02-04T21:13:08.479Z,62.3
2017-02-04T21:15:17.014Z,62.25
2017-02-04T21:17:36.984Z,62.3
2017-02-04T21:19:52.427Z,62.29
2017-02-04T21:22:08.443Z,62.31
2017-02-04T21:24:24.119Z,62.26
2017-02-04T21:26:38.548Z,62.31
2017-02-04T21:28:53.449Z,62.3
2017-02-04T21:31:07.307Z,62.32
2017-02-04T21:33:16.329Z,62.34
2017-02-04T21:35:31.645Z,62.21
2017-02-04T21:37:45.918Z,62.21
2017-02-04T21:40:01.865Z,62.26
2017-02-04T21:42:18.660Z,62.28
2017-02-04T21:44:31.883Z,62.27
2017-02-04T21:46:48.605Z,62.27
2017-02-04T21:49:05.351Z,62.33
2017-02-04T21:51:22.699Z,62.3
2017-02-04T21:53:38.511Z,62.29
2017-02-04T21:55:55.447Z,62.31
2017-02-04T21:58:05.188Z,62.38
2017-02-04T22:00:20.628Z,62.35
2017-02-04T22:02:36.046Z,62.3
2017-02-04T22:04:49.465Z,62.36
2017-02-04T22:07:03.343Z,62.34
2017-02-04T22:09:16.218Z,62.39
2017-02-04T22:11:19.831Z,62.44
2017-02-04T22:13:32.853Z,62.33
2017-02-04T22:15:51.388Z,62.17
2017-02-04T22:18:04.911Z,62.09
2017-02-04T22:20:18.313Z,62
2017-02-04T22:22:32.298Z,61.92
2017-02-04T22:24:46.691Z,61.85
2017-02-04T22:27:00.601Z,61.83
2017-02-04T22:29:12.915Z,61.8
2017-02-04T22:31:25.141Z,61.77
2017-02-04T22:33:40.321Z,61.72
2017-02-04T22:35:57.110Z,61.7
2017-02-04T22:38:06.656Z,61.7
2017-02-04T22:40:24.433Z,61.7
2017-02-04T22:42:37.023Z,61.66
2017-02-04T22:44:50.980Z,61.66
2017-02-04T22:47:05.405Z,61.61
2017-02-04T22:49:19.345Z,61.62
2017-02-04T22:51:33.654Z,61.56
2017-02-04T22:53:46.365Z,61.54
2017-02-04T22:56:02.535Z,61.54
2017-02-04T22:58:15.794Z,61.53
2017-02-04T23:00:30.616Z,61.51
2017-02-04T23:02:46.599Z,61.54
2017-02-04T23:04:59.806Z,61.51
2017-02-04T23:07:15.285Z,61.49
2017-02-04T23:09:31.005Z,61.48
2017-02-04T23:11:43.831Z,61.48
2017-02-04T23:13:57.040Z,61.47
2017-02-04T23:16:12.667Z,61.47
2017-02-04T23:18:29.101Z,61.47
2017-02-04T23:20:41.606Z,61.5
2017-02-04T23:22:55.414Z,61.51
2017-02-04T23:25:08.756Z,61.5
2017-02-04T23:27:22.123Z,61.45
2017-02-04T23:29:35.268Z,61.42
2017-02-04T23:31:48.604Z,61.45
2017-02-04T23:34:01.869Z,61.42
2017-02-04T23:36:14.940Z,61.38
2017-02-04T23:38:34.150Z,61.39
2017-02-04T23:40:50.082Z,61.4
2017-02-04T23:43:02.514Z,61.41
2017-02-04T23:45:15.302Z,61.41
2017-02-04T23:47:29.658Z,61.41
2017-02-04T23:49:45.246Z,61.42
2017-02-04T23:51:58.537Z,61.4
2017-02-04T23:54:13.744Z,61.42
2017-02-04T23:56:31.188Z,61.41
2017-02-04T23:58:43.850Z,61.42
